Terminal Aerodrome Forecast
Issued by NWS

Home | Current Version | Previous Version | Graphics & Text | Print | Product List | Glossary On
Versions: 1 2 3 4 5 6 7 8 9 10 11 12 13 14 15 16 17 18 19 20 21 22 23
064
FTUS43 KPAH 292345
TAFCGI
TAF
KCGI 292345Z 3000/3024 17012KT P6SM VCTS FEW035CB BKN090
     FM300300 17016G25KT 3SM TSRA SCT020CB BKN090
     FM300400 18018G26KT 6SM -RA VCTS OVC070CB
     FM300600 18018G27KT 6SM -SHRA FEW010 OVC050
     FM301300 17020G29KT 3SM TSRA BKN006CB OVC025
     FM301900 19020G27KT 6SM -SHRA SCT006 BKN025=

USA.gov is the U.S. government's official web portal to all federal, state and local government web resources and services.